Time;durP1;ratioP1;P1;durP2;ratioP2;P2;SDS_P1;SDS_P2;PMS_P1;PMS_P2;Temp;Humidity;BMP_temperature;BMP_pressure;BME280_temperature;BME280_humidity;BME280_pressure;Samples;Min_cycle;Max_cycle;Signal;HPM_P1;HPM_P2
2023/04/24 00:02:06;;;;;;;11.30;10.23;;;10.80;99.90;;;;;;5035397;28;20162;-46
2023/04/24 00:04:32;;;;;;;11.00;9.90;;;10.80;99.90;;;;;;5051091;28;20504;-43
2023/04/24 00:06:59;;;;;;;10.95;9.85;;;10.70;99.90;;;;;;5035566;28;20550;-38
2023/04/24 00:09:25;;;;;;;11.25;10.00;;;10.70;99.90;;;;;;5036118;28;20091;-48
2023/04/24 00:11:51;;;;;;;10.80;9.80;;;10.70;99.90;;;;;;5035874;28;20055;-39
2023/04/24 00:14:17;;;;;;;9.80;8.88;;;10.70;99.90;;;;;;5035268;28;20055;-46
2023/04/24 00:16:43;;;;;;;8.57;7.78;;;10.60;99.90;;;;;;5036161;28;20049;-38
2023/04/24 00:19:09;;;;;;;7.28;6.60;;;10.60;99.90;;;;;;5051388;28;20126;-43
2023/04/24 00:21:34;;;;;;;7.40;6.70;;;10.60;99.90;;;;;;5035456;28;20049;-42
2023/04/24 00:24:00;;;;;;;7.75;6.95;;;10.50;99.90;;;;;;5035189;28;20045;-42
2023/04/24 00:26:26;;;;;;;6.72;6.13;;;10.50;99.90;;;;;;5025055;28;20087;-46
2023/04/24 00:28:51;;;;;;;6.30;5.70;;;10.40;99.90;;;;;;5032115;28;20443;-40
2023/04/24 00:31:17;;;;;;;6.15;5.55;;;10.40;99.90;;;;;;5025839;28;20068;-44
2023/04/24 00:33:43;;;;;;;6.97;6.28;;;10.40;99.90;;;;;;5034460;28;20587;-38
2023/04/24 00:36:09;;;;;;;7.38;6.63;;;10.30;99.90;;;;;;5034882;28;20041;-44
2023/04/24 00:38:35;;;;;;;6.93;6.22;;;10.30;99.90;;;;;;5033462;28;20052;-45
2023/04/24 00:41:01;;;;;;;6.47;5.88;;;10.20;99.90;;;;;;5034808;28;20049;-43
2023/04/24 00:43:26;;;;;;;8.07;5.97;;;10.20;99.90;;;;;;5034669;28;20053;-44
2023/04/24 00:45:52;;;;;;;7.60;6.25;;;10.20;99.90;;;;;;5035461;28;20499;-42
2023/04/24 00:48:19;;;;;;;8.68;6.70;;;10.20;99.90;;;;;;5033625;28;20060;-41
2023/04/24 00:50:45;;;;;;;8.55;6.97;;;10.10;99.90;;;;;;5034268;28;20409;-37
2023/04/24 00:53:11;;;;;;;7.40;6.70;;;10.10;99.90;;;;;;5033362;28;20041;-48
2023/04/24 00:55:37;;;;;;;7.78;7.07;;;10.20;99.90;;;;;;5035074;28;20088;-42
2023/04/24 00:58:03;;;;;;;7.57;6.88;;;10.20;99.90;;;;;;5035600;28;20151;-43
2023/04/24 01:00:28;;;;;;;7.78;6.72;;;10.20;99.90;;;;;;5034550;28;20049;-44
2023/04/24 01:02:55;;;;;;;7.18;6.47;;;10.20;99.90;;;;;;5035205;28;20075;-40
2023/04/24 01:05:21;;;;;;;6.70;5.72;;;10.10;99.90;;;;;;5034834;28;20522;-45
2023/04/24 01:07:48;;;;;;;7.25;6.53;;;10.10;99.90;;;;;;5034691;28;20041;-45
2023/04/24 01:10:15;;;;;;;6.53;5.65;;;10.10;99.90;;;;;;5034903;28;20049;-42
2023/04/24 01:12:41;;;;;;;7.60;6.82;;;10.00;99.90;;;;;;5033317;28;20163;-36
2023/04/24 01:15:07;;;;;;;7.32;6.28;;;10.10;99.90;;;;;;5034538;28;20397;-43
2023/04/24 01:17:33;;;;;;;8.80;6.85;;;10.10;99.90;;;;;;5030980;28;20090;-43
2023/04/24 01:20:00;;;;;;;8.77;6.93;;;10.00;99.90;;;;;;5024733;28;20045;-48
2023/04/24 01:22:26;;;;;;;8.18;7.13;;;10.10;99.90;;;;;;5034554;28;20049;-46
2023/04/24 01:24:53;;;;;;;8.23;7.53;;;10.00;99.90;;;;;;5034162;28;20049;-43
2023/04/24 01:27:19;;;;;;;8.05;7.25;;;10.00;99.90;;;;;;5033289;28;20049;-43
2023/04/24 01:29:47;;;;;;;8.10;7.30;;;10.00;99.90;;;;;;5025381;28;20059;-37
2023/04/24 01:32:13;;;;;;;10.13;7.55;;;10.00;99.90;;;;;;5032327;28;20135;-38
2023/04/24 01:34:39;;;;;;;8.80;8.00;;;10.00;99.90;;;;;;5033717;28;20044;-41
2023/04/24 01:37:05;;;;;;;8.95;7.68;;;10.10;99.90;;;;;;5034838;28;20562;-43
2023/04/24 01:39:31;;;;;;;9.00;8.20;;;10.00;99.90;;;;;;5033096;28;20053;-48
2023/04/24 01:41:57;;;;;;;9.52;8.52;;;10.00;99.90;;;;;;5034297;28;20052;-43
2023/04/24 01:44:23;;;;;;;10.45;8.60;;;10.00;99.90;;;;;;5034387;28;20171;-44
2023/04/24 01:46:49;;;;;;;11.65;8.82;;;10.00;99.90;;;;;;5034142;28;20045;-43
2023/04/24 01:49:15;;;;;;;9.90;8.90;;;10.00;99.90;;;;;;5034261;28;20088;-42
2023/04/24 01:51:41;;;;;;;10.65;9.55;;;10.00;99.90;;;;;;5033533;28;20049;-45
2023/04/24 01:54:06;;;;;;;9.82;8.63;;;10.00;99.90;;;;;;5033395;28;20085;-42
2023/04/24 01:56:35;;;;;;;10.55;9.45;;;10.00;99.90;;;;;;5035847;28;20053;-47
2023/04/24 01:59:02;;;;;;;10.48;9.57;;;10.00;99.90;;;;;;5032968;28;20404;-37
2023/04/24 02:01:32;;;;;;;11.23;10.02;;;10.00;99.90;;;;;;5029966;28;20508;-39
2023/04/24 02:03:58;;;;;;;11.68;10.55;;;10.00;99.90;;;;;;5026129;28;20497;-37
2023/04/24 02:06:23;;;;;;;11.45;10.35;;;10.00;99.90;;;;;;5033331;28;20051;-41
2023/04/24 02:08:49;;;;;;;10.93;9.93;;;10.10;99.90;;;;;;5034426;28;20546;-37
2023/04/24 02:11:15;;;;;;;11.27;10.18;;;10.00;99.90;;;;;;5033564;28;20578;-44
2023/04/24 02:13:40;;;;;;;11.68;10.48;;;10.00;99.90;;;;;;5021899;28;20050;-37
2023/04/24 02:16:06;;;;;;;12.38;10.93;;;10.00;99.90;;;;;;5032035;28;20411;-43
2023/04/24 02:18:31;;;;;;;11.85;10.75;;;10.00;99.90;;;;;;5033625;28;20041;-40
2023/04/24 02:20:57;;;;;;;11.95;10.82;;;10.00;99.90;;;;;;5027809;28;20131;-41
2023/04/24 02:23:23;;;;;;;13.25;11.95;;;10.00;99.90;;;;;;5025403;28;20048;-46
2023/04/24 02:25:48;;;;;;;13.20;11.90;;;10.00;99.90;;;;;;5033430;28;20076;-44
2023/04/24 02:28:14;;;;;;;13.25;11.93;;;10.00;99.90;;;;;;5034318;28;20051;-42
2023/04/24 02:30:39;;;;;;;13.93;12.52;;;10.00;99.90;;;;;;5021933;28;20472;-40
2023/04/24 02:33:05;;;;;;;14.95;13.55;;;10.00;99.90;;;;;;5033363;28;20051;-46
2023/04/24 02:35:31;;;;;;;14.18;12.77;;;10.00;99.90;;;;;;5032756;28;20041;-42
2023/04/24 02:37:57;;;;;;;14.95;13.43;;;10.10;99.90;;;;;;5036181;28;20254;-45
2023/04/24 02:40:22;;;;;;;16.95;13.40;;;10.00;99.90;;;;;;5036416;28;20056;-45
2023/04/24 02:42:48;;;;;;;15.40;13.80;;;10.10;99.90;;;;;;5037475;28;20041;-42
2023/04/24 02:45:14;;;;;;;15.00;13.60;;;10.10;99.90;;;;;;5036855;28;20150;-41
2023/04/24 02:47:39;;;;;;;15.93;14.43;;;10.00;99.90;;;;;;5037195;28;20124;-38
2023/04/24 02:50:06;;;;;;;15.68;14.18;;;10.10;99.90;;;;;;5031038;28;20052;-45
2023/04/24 02:52:32;;;;;;;16.77;14.15;;;10.10;99.90;;;;;;5028784;28;20200;-40
2023/04/24 02:54:57;;;;;;;17.42;15.63;;;10.00;99.90;;;;;;5032060;28;20118;-48
2023/04/24 02:57:23;;;;;;;17.55;15.68;;;10.00;99.90;;;;;;5037126;28;20114;-41
2023/04/24 02:59:49;;;;;;;17.48;15.63;;;10.10;99.90;;;;;;5028237;28;20769;-47
2023/04/24 03:02:14;;;;;;;19.00;16.85;;;10.10;99.90;;;;;;5025964;28;20092;-41
2023/04/24 03:04:42;;;;;;;21.55;16.27;;;10.10;99.90;;;;;;5028911;28;20045;-36
2023/04/24 03:07:08;;;;;;;18.95;16.95;;;10.10;99.90;;;;;;5027836;28;20045;-37
2023/04/24 03:09:34;;;;;;;20.50;18.30;;;10.20;99.90;;;;;;5034861;28;20056;-44
2023/04/24 03:12:00;;;;;;;19.35;17.25;;;10.20;99.90;;;;;;5035635;28;20057;-41
2023/04/24 03:14:25;;;;;;;19.63;17.10;;;10.20;99.90;;;;;;5035936;28;20056;-47
2023/04/24 03:16:51;;;;;;;20.77;18.58;;;10.20;99.90;;;;;;5035378;28;20064;-40
2023/04/24 03:19:17;;;;;;;20.77;18.52;;;10.20;99.90;;;;;;5036108;28;20565;-44
2023/04/24 03:21:42;;;;;;;21.63;18.65;;;10.20;99.90;;;;;;5036097;28;20064;-40
2023/04/24 03:24:09;;;;;;;22.63;19.38;;;10.20;99.90;;;;;;5035879;28;20049;-36
2023/04/24 03:26:35;;;;;;;21.98;18.75;;;10.20;99.90;;;;;;5036243;28;20048;-46
2023/04/24 03:29:01;;;;;;;22.05;18.10;;;10.20;99.90;;;;;;5031522;28;20055;-36
2023/04/24 03:31:26;;;;;;;19.77;17.70;;;10.20;99.90;;;;;;5016267;28;20129;-43
2023/04/24 03:33:52;;;;;;;20.98;18.80;;;10.30;99.90;;;;;;5034279;28;20337;-50
2023/04/24 03:36:19;;;;;;;9.90;8.80;;;10.30;99.90;;;;;;5025403;28;20099;-39
2023/04/24 03:38:45;;;;;;;8.70;7.80;;;10.30;99.90;;;;;;5035506;28;20041;-41
2023/04/24 03:41:11;;;;;;;7.53;6.70;;;10.20;99.90;;;;;;5036313;28;20115;-38
2023/04/24 03:43:37;;;;;;;5.63;4.85;;;10.20;99.90;;;;;;5022935;28;20045;-39
2023/04/24 03:46:03;;;;;;;4.78;4.38;;;10.30;99.90;;;;;;5037114;28;20114;-45
2023/04/24 03:48:28;;;;;;;6.38;4.68;;;10.20;99.90;;;;;;5036171;28;20091;-45
2023/04/24 03:50:54;;;;;;;3.72;3.40;;;10.20;99.90;;;;;;5036363;28;20463;-41
2023/04/24 03:53:20;;;;;;;5.10;3.60;;;10.20;99.90;;;;;;5034231;28;20060;-44
2023/04/24 03:55:46;;;;;;;4.00;3.22;;;10.30;99.90;;;;;;5036775;28;20739;-43
2023/04/24 03:58:13;;;;;;;4.30;3.90;;;10.20;99.90;;;;;;5036051;28;20049;-44
2023/04/24 04:00:40;;;;;;;4.20;3.80;;;10.30;99.90;;;;;;5028073;28;20049;-38
2023/04/24 04:03:06;;;;;;;4.55;4.15;;;10.20;99.90;;;;;;5035813;28;20048;-44
2023/04/24 04:05:31;;;;;;;5.43;4.45;;;10.20;99.90;;;;;;5051644;28;20041;-45
2023/04/24 04:07:57;;;;;;;6.13;5.47;;;10.20;99.90;;;;;;5022803;28;20056;-43
2023/04/24 04:10:23;;;;;;;6.85;6.15;;;10.20;99.90;;;;;;5036236;28;20045;-40
2023/04/24 04:12:49;;;;;;;7.38;6.68;;;10.20;99.90;;;;;;5035749;28;20046;-44
2023/04/24 04:15:14;;;;;;;8.13;7.32;;;10.20;99.90;;;;;;5035396;28;20084;-36
2023/04/24 04:17:40;;;;;;;10.63;9.63;;;10.20;99.90;;;;;;5035657;28;20061;-36
2023/04/24 04:20:09;;;;;;;12.38;10.35;;;10.20;99.90;;;;;;5035444;28;20045;-42
2023/04/24 04:22:36;;;;;;;11.65;10.45;;;10.20;99.90;;;;;;5036539;28;20049;-44
2023/04/24 04:25:03;;;;;;;13.00;11.50;;;10.20;99.90;;;;;;5021558;28;20111;-40
2023/04/24 04:27:31;;;;;;;14.82;13.15;;;10.20;99.90;;;;;;5033406;28;20059;-47
2023/04/24 04:30:01;;;;;;;17.23;13.73;;;10.20;99.90;;;;;;5034703;28;20063;-49
2023/04/24 04:32:26;;;;;;;13.02;11.50;;;10.10;99.90;;;;;;5035746;28;20519;-47
2023/04/24 04:34:53;;;;;;;12.38;11.18;;;10.10;99.90;;;;;;5035233;28;20045;-43
2023/04/24 04:37:18;;;;;;;12.63;11.10;;;10.10;99.90;;;;;;5035433;28;20072;-41
2023/04/24 04:39:44;;;;;;;12.48;11.18;;;10.00;99.90;;;;;;5021440;28;20202;-38
2023/04/24 04:42:10;;;;;;;13.25;11.23;;;10.10;99.90;;;;;;5034195;28;20076;-36
2023/04/24 04:44:36;;;;;;;11.55;10.35;;;10.00;99.90;;;;;;5036281;28;20053;-40
2023/04/24 04:47:05;;;;;;;11.00;10.00;;;10.00;99.90;;;;;;5051251;28;20053;-45
2023/04/24 04:49:31;;;;;;;10.65;9.57;;;10.00;99.90;;;;;;5031709;28;20091;-36
2023/04/24 04:51:57;;;;;;;11.32;8.98;;;10.00;99.90;;;;;;5026035;28;20146;-47
2023/04/24 04:54:22;;;;;;;10.73;8.80;;;10.00;99.90;;;;;;5035267;28;20053;-37
2023/04/24 04:56:50;;;;;;;10.25;9.00;;;10.00;99.90;;;;;;5035068;28;20499;-37
2023/04/24 04:59:16;;;;;;;8.88;7.70;;;10.00;99.90;;;;;;5049201;28;20088;-40
2023/04/24 05:01:41;;;;;;;8.00;6.93;;;10.00;99.90;;;;;;5035671;28;20459;-48
2023/04/24 05:04:07;;;;;;;7.68;6.85;;;10.00;99.90;;;;;;5034839;28;20057;-48
2023/04/24 05:06:33;;;;;;;8.32;7.43;;;10.00;99.90;;;;;;5035582;28;20098;-43
2023/04/24 05:08:58;;;;;;;9.18;7.65;;;9.90;99.90;;;;;;5021443;28;20064;-43
2023/04/24 05:11:24;;;;;;;7.90;6.25;;;10.00;99.90;;;;;;5034048;28;20049;-42
2023/04/24 05:13:50;;;;;;;5.75;4.63;;;9.90;99.90;;;;;;5049595;28;20060;-38
2023/04/24 05:16:16;;;;;;;6.90;4.50;;;9.90;99.90;;;;;;5035167;28;20095;-39
2023/04/24 05:18:41;;;;;;;5.10;4.47;;;10.00;99.90;;;;;;5035684;28;20048;-44
2023/04/24 05:21:07;;;;;;;5.43;3.78;;;9.90;99.90;;;;;;5034908;28;20107;-42
2023/04/24 05:23:32;;;;;;;4.80;3.60;;;9.90;99.90;;;;;;5033890;28;20118;-42
2023/04/24 05:25:58;;;;;;;4.78;3.20;;;9.90;99.90;;;;;;5034576;28;20400;-38
2023/04/24 05:28:28;;;;;;;5.20;3.28;;;9.90;99.90;;;;;;5035412;28;20056;-37
2023/04/24 05:30:55;;;;;;;8.75;3.20;;;9.90;99.90;;;;;;5048240;28;20061;-38
2023/04/24 05:33:22;;;;;;;7.55;4.68;;;9.90;99.90;;;;;;5034531;28;20045;-38
2023/04/24 05:35:48;;;;;;;6.35;4.97;;;9.90;99.90;;;;;;5035495;28;20191;-47
2023/04/24 05:38:17;;;;;;;8.75;5.82;;;10.00;99.90;;;;;;5034818;28;20500;-45
2023/04/24 05:40:43;;;;;;;7.50;6.03;;;9.90;99.90;;;;;;5034664;28;20041;-47
2023/04/24 05:43:08;;;;;;;13.18;8.35;;;10.00;99.90;;;;;;5034376;28;20432;-39
2023/04/24 05:45:35;;;;;;;13.05;9.10;;;10.00;99.90;;;;;;5035130;28;20044;-37
2023/04/24 05:48:02;;;;;;;11.77;9.27;;;10.00;99.90;;;;;;5034367;28;20053;-38
2023/04/24 05:50:27;;;;;;;14.10;9.85;;;10.00;99.90;;;;;;5023063;28;20061;-39
2023/04/24 05:52:53;;;;;;;15.18;10.07;;;10.00;99.90;;;;;;5038588;28;20049;-43
2023/04/24 05:55:19;;;;;;;15.50;10.18;;;10.00;99.90;;;;;;5033427;28;20124;-42
2023/04/24 05:57:45;;;;;;;15.45;9.95;;;10.10;99.90;;;;;;5034793;28;20335;-36
2023/04/24 06:00:15;;;;;;;15.73;9.50;;;10.10;99.90;;;;;;5026865;28;20522;-35
2023/04/24 06:02:41;;;;;;;12.48;7.70;;;10.10;99.90;;;;;;5034569;28;20665;-35
2023/04/24 06:05:08;;;;;;;9.82;6.40;;;10.10;99.90;;;;;;5034686;28;20041;-43
2023/04/24 06:07:34;;;;;;;9.25;6.95;;;10.10;99.90;;;;;;5021187;28;20080;-47
2023/04/24 06:10:00;;;;;;;7.03;6.20;;;10.10;99.90;;;;;;5050502;28;20085;-37
2023/04/24 06:12:25;;;;;;;8.50;6.32;;;10.10;99.90;;;;;;5039064;28;20132;-47
2023/04/24 06:14:51;;;;;;;7.80;5.60;;;10.10;99.90;;;;;;5038973;28;20612;-37
2023/04/24 06:17:17;;;;;;;7.10;6.40;;;10.10;99.90;;;;;;5038684;28;20080;-41
2023/04/24 06:19:43;;;;;;;6.57;5.90;;;10.10;99.90;;;;;;5038236;28;20556;-36
2023/04/24 06:22:08;;;;;;;7.95;5.15;;;10.10;99.90;;;;;;5024834;28;20044;-46
2023/04/24 06:24:34;;;;;;;7.53;5.35;;;10.00;99.90;;;;;;5053362;28;20064;-40
2023/04/24 06:27:01;;;;;;;6.13;4.95;;;10.10;99.90;;;;;;5039027;28;20045;-36
2023/04/24 06:29:27;;;;;;;7.80;4.55;;;10.10;99.90;;;;;;5031690;28;20502;-46
2023/04/24 06:31:53;;;;;;;6.28;3.80;;;10.20;99.90;;;;;;5033336;28;20053;-38
2023/04/24 06:34:18;;;;;;;7.70;3.67;;;10.20;99.90;;;;;;5049791;28;20048;-43
2023/04/24 06:36:44;;;;;;;4.70;3.60;;;10.20;99.90;;;;;;5035589;28;20045;-45
2023/04/24 06:39:10;;;;;;;5.47;3.42;;;10.20;99.90;;;;;;5037502;28;20055;-35
2023/04/24 06:41:35;;;;;;;4.65;3.10;;;10.20;99.90;;;;;;5038266;28;20499;-44
2023/04/24 06:44:01;;;;;;;8.40;3.30;;;10.20;99.90;;;;;;5052466;28;20056;-36
2023/04/24 06:46:27;;;;;;;4.00;2.97;;;10.10;99.90;;;;;;5037333;28;20051;-48
2023/04/24 06:48:56;;;;;;;8.52;3.65;;;10.10;99.90;;;;;;5037425;28;20138;-42
2023/04/24 06:51:23;;;;;;;4.53;2.25;;;10.20;99.90;;;;;;5035824;28;20061;-43
2023/04/24 06:53:49;;;;;;;4.50;3.05;;;10.30;99.90;;;;;;5036148;28;20056;-40
2023/04/24 06:56:15;;;;;;;4.57;2.60;;;10.40;99.90;;;;;;5035341;28;20048;-37
2023/04/24 06:58:42;;;;;;;4.53;2.67;;;10.40;99.90;;;;;;5035235;28;20081;-36
2023/04/24 07:01:07;;;;;;;5.13;2.60;;;10.40;99.90;;;;;;5033640;28;20052;-45
2023/04/24 07:03:33;;;;;;;6.63;2.90;;;10.40;99.90;;;;;;5035483;28;20348;-43
2023/04/24 07:05:59;;;;;;;6.75;3.22;;;10.30;99.90;;;;;;5049644;28;20383;-45
2023/04/24 07:08:25;;;;;;;11.27;5.18;;;10.30;99.90;;;;;;5024393;28;20498;-46
2023/04/24 07:10:51;;;;;;;13.32;7.07;;;10.20;99.90;;;;;;5034900;28;20041;-37
2023/04/24 07:13:17;;;;;;;14.45;8.27;;;10.20;99.90;;;;;;5042976;28;20060;-44
2023/04/24 07:15:43;;;;;;;14.05;9.93;;;10.20;99.90;;;;;;5033190;28;20505;-38
2023/04/24 07:18:09;;;;;;;21.27;14.38;;;10.10;99.90;;;;;;5035843;28;20443;-45
2023/04/24 07:20:35;;;;;;;22.98;15.52;;;10.00;99.90;;;;;;5035192;28;20096;-43
2023/04/24 07:23:01;;;;;;;24.17;16.25;;;10.00;99.90;;;;;;5035121;28;20048;-43
2023/04/24 07:25:26;;;;;;;23.42;15.48;;;9.90;99.90;;;;;;5022083;28;20587;-44
2023/04/24 07:27:52;;;;;;;22.55;16.52;;;9.90;99.90;;;;;;5035321;28;20526;-42
2023/04/24 07:30:18;;;;;;;27.75;16.90;;;9.90;99.90;;;;;;5031033;28;20487;-41
2023/04/24 07:32:44;;;;;;;23.77;16.77;;;9.80;99.90;;;;;;5032745;28;20036;-40
2023/04/24 07:35:10;;;;;;;19.98;14.88;;;9.80;99.90;;;;;;5024068;28;20041;-37
2023/04/24 07:37:36;;;;;;;20.90;14.70;;;9.80;99.90;;;;;;5034404;28;20406;-47
2023/04/24 07:40:02;;;;;;;24.63;14.60;;;9.80;99.90;;;;;;5024143;28;20126;-43
2023/04/24 07:42:30;;;;;;;22.23;14.00;;;9.80;99.90;;;;;;5036660;28;20057;-43
2023/04/24 07:44:55;;;;;;;22.08;15.27;;;9.70;99.90;;;;;;5031919;28;20658;-50
2023/04/24 07:47:21;;;;;;;23.05;16.67;;;9.70;99.90;;;;;;5026116;28;20044;-41
2023/04/24 07:49:47;;;;;;;22.30;16.02;;;9.70;99.90;;;;;;5031609;28;20186;-43
2023/04/24 07:52:13;;;;;;;24.90;16.70;;;9.60;99.90;;;;;;5035107;28;20635;-41
2023/04/24 07:54:38;;;;;;;22.67;18.83;;;9.60;99.90;;;;;;5027850;28;20060;-42
2023/04/24 07:57:06;;;;;;;27.67;19.33;;;9.60;99.90;;;;;;5024818;28;20042;-43
2023/04/24 07:59:32;;;;;;;25.75;19.88;;;9.60;99.90;;;;;;5027297;28;20454;-45
2023/04/24 08:01:58;;;;;;;23.92;18.13;;;9.60;99.90;;;;;;5033688;28;20049;-44
2023/04/24 08:04:23;;;;;;;23.98;17.98;;;9.50;99.90;;;;;;5030498;28;20045;-44
2023/04/24 08:06:49;;;;;;;22.00;17.02;;;9.50;99.90;;;;;;5035962;28;20859;-40
2023/04/24 08:09:14;;;;;;;21.50;16.67;;;9.50;99.90;;;;;;5022296;28;20498;-44
2023/04/24 08:11:40;;;;;;;21.60;15.57;;;9.50;99.90;;;;;;5036341;28;20099;-37
2023/04/24 08:14:06;;;;;;;18.85;14.60;;;9.50;99.90;;;;;;5035913;28;20561;-41
2023/04/24 08:16:33;;;;;;;17.27;13.30;;;9.50;99.90;;;;;;5036279;28;20045;-45
2023/04/24 08:18:58;;;;;;;16.13;12.77;;;9.50;99.90;;;;;;5035010;28;20582;-40
2023/04/24 08:21:26;;;;;;;16.63;12.32;;;9.60;99.90;;;;;;5037186;28;20064;-42
2023/04/24 08:23:52;;;;;;;16.25;12.05;;;9.50;99.90;;;;;;5034629;28;20186;-40
2023/04/24 08:26:18;;;;;;;13.82;11.30;;;9.60;99.90;;;;;;5034792;28;20307;-37
2023/04/24 08:28:44;;;;;;;18.73;11.07;;;9.70;99.90;;;;;;5035344;28;20044;-40
2023/04/24 08:31:10;;;;;;;15.50;11.30;;;9.80;99.90;;;;;;5024353;28;20056;-41
2023/04/24 08:33:35;;;;;;;15.75;10.07;;;9.90;99.90;;;;;;5021123;28;20049;-43
2023/04/24 08:36:05;;;;;;;15.07;9.48;;;10.00;99.90;;;;;;5033919;28;20048;-40
2023/04/24 08:38:31;;;;;;;15.32;9.60;;;10.00;99.90;;;;;;5022468;28;20399;-38
2023/04/24 08:41:01;;;;;;;13.77;9.15;;;10.10;99.90;;;;;;5050238;28;20049;-46
2023/04/24 08:43:27;;;;;;;17.20;9.80;;;10.10;99.90;;;;;;5030646;28;20059;-45
2023/04/24 08:45:56;;;;;;;12.95;8.60;;;10.10;99.90;;;;;;5041259;28;20040;-40
2023/04/24 08:48:23;;;;;;;15.10;9.73;;;10.00;99.90;;;;;;5036239;28;20443;-36
2023/04/24 08:50:50;;;;;;;15.90;8.95;;;9.90;99.90;;;;;;5028693;28;20044;-44
2023/04/24 08:53:17;;;;;;;14.70;8.57;;;9.90;99.90;;;;;;5035023;28;20550;-37
2023/04/24 08:55:45;;;;;;;18.83;9.10;;;9.80;99.90;;;;;;5035333;28;20076;-41
2023/04/24 08:58:11;;;;;;;14.02;9.32;;;9.70;99.90;;;;;;5035734;28;20053;-43
2023/04/24 09:00:39;;;;;;;15.88;8.27;;;9.70;99.90;;;;;;5034225;28;20486;-41
2023/04/24 09:03:05;;;;;;;13.05;8.02;;;9.70;99.90;;;;;;5034619;28;20049;-46
2023/04/24 09:05:32;;;;;;;15.68;7.50;;;9.70;99.90;;;;;;5035641;28;20041;-43
2023/04/24 09:08:01;;;;;;;15.35;6.95;;;9.80;99.90;;;;;;5035186;28;20350;-40
2023/04/24 09:10:30;;;;;;;15.65;8.65;;;9.90;99.90;;;;;;5034634;28;20045;-43
2023/04/24 09:12:58;;;;;;;11.45;6.57;;;10.00;99.90;;;;;;5034491;28;20134;-44
2023/04/24 09:15:25;;;;;;;9.38;5.38;;;10.00;99.90;;;;;;5035509;28;20049;-39
2023/04/24 09:17:51;;;;;;;12.75;6.50;;;10.10;99.90;;;;;;5034134;28;20068;-37
2023/04/24 09:20:16;;;;;;;10.95;5.18;;;10.30;99.90;;;;;;5032447;28;20415;-44
2023/04/24 09:22:44;;;;;;;13.30;5.50;;;10.30;99.90;;;;;;5034629;28;20431;-39
2023/04/24 09:25:12;;;;;;;12.40;4.97;;;10.50;99.90;;;;;;5034610;28;20620;-42
2023/04/24 09:27:43;;;;;;;12.40;4.80;;;10.60;99.90;;;;;;5042826;28;20446;-42
2023/04/24 09:30:10;;;;;;;8.65;4.90;;;10.70;99.90;;;;;;5018733;28;20099;-40
2023/04/24 09:32:35;;;;;;;12.55;5.65;;;10.70;99.90;;;;;;5034513;28;20054;-44
2023/04/24 09:35:13;;;;;;;9.25;4.70;;;10.60;99.90;;;;;;5036810;28;20638;-42
2023/04/24 09:37:43;;;;;;;9.55;5.10;;;10.50;99.90;;;;;;5033623;28;20060;-45
2023/04/24 09:40:13;;;;;;;11.20;4.63;;;10.40;99.90;;;;;;5034365;28;20058;-44
2023/04/24 09:42:39;;;;;;;9.93;4.75;;;10.20;99.90;;;;;;5034783;28;20437;-41
2023/04/24 09:45:14;;;;;;;13.75;5.63;;;10.10;99.90;;;;;;5035505;28;20049;-45
2023/04/24 09:47:40;;;;;;;14.15;5.32;;;10.00;99.90;;;;;;5025863;28;20122;-39
2023/04/24 09:50:14;;;;;;;15.30;4.90;;;10.00;99.90;;;;;;5038009;28;20127;-40
2023/04/24 09:52:45;;;;;;;13.60;4.53;;;10.00;99.90;;;;;;5037730;28;20087;-38
2023/04/24 09:55:29;;;;;;;13.18;3.97;;;10.00;99.90;;;;;;5037537;28;20405;-41
2023/04/24 09:58:00;;;;;;;11.18;4.13;;;9.90;99.90;;;;;;5039064;28;20511;-45
2023/04/24 10:00:33;;;;;;;13.25;4.50;;;9.80;99.90;;;;;;5030684;28;20076;-45
2023/04/24 10:03:03;;;;;;;15.20;5.30;;;9.80;99.90;;;;;;5032496;28;20048;-39
2023/04/24 10:05:30;;;;;;;12.15;5.18;;;9.80;99.90;;;;;;5052531;28;20041;-47
2023/04/24 10:08:04;;;;;;;10.35;3.65;;;9.80;99.90;;;;;;5036679;28;20049;-47
2023/04/24 10:10:36;;;;;;;15.15;4.63;;;9.80;99.90;;;;;;5034559;28;20546;-40
2023/04/24 10:13:03;;;;;;;11.27;4.10;;;9.90;99.90;;;;;;5029023;28;20049;-46
2023/04/24 10:15:29;;;;;;;13.70;3.78;;;10.00;99.90;;;;;;5030626;28;20060;-38
2023/04/24 10:17:55;;;;;;;13.55;4.10;;;10.00;99.90;;;;;;5038553;28;20381;-42
2023/04/24 10:20:27;;;;;;;11.80;3.75;;;10.10;99.90;;;;;;5035323;28;20568;-36
2023/04/24 10:22:54;;;;;;;13.70;3.83;;;10.20;99.90;;;;;;5025759;28;20059;-38
2023/04/24 10:25:22;;;;;;;12.52;3.40;;;10.30;99.90;;;;;;5036982;28;20167;-40
2023/04/24 10:27:49;;;;;;;14.00;4.38;;;10.40;99.90;;;;;;5035996;28;20049;-39
2023/04/24 10:30:16;;;;;;;12.73;3.33;;;10.40;99.90;;;;;;5035758;28;20474;-42
2023/04/24 10:32:41;;;;;;;9.77;3.63;;;10.30;99.90;;;;;;5037011;28;20436;-42
2023/04/24 10:35:09;;;;;;;11.65;3.10;;;10.30;99.90;;;;;;5024009;28;20037;-42
2023/04/24 10:37:58;;;;;;;11.48;3.08;;;10.30;99.90;;;;;;5031040;28;20091;-42
2023/04/24 10:40:30;;;;;;;14.32;3.28;;;10.30;99.90;;;;;;5020083;28;20056;-39
2023/04/24 10:42:56;;;;;;;13.32;3.28;;;10.30;99.90;;;;;;5036556;28;20045;-45
2023/04/24 10:45:23;;;;;;;10.65;3.83;;;10.20;99.90;;;;;;5037958;28;20040;-42
2023/04/24 10:47:56;;;;;;;11.20;3.30;;;10.30;99.90;;;;;;5035254;28;20477;-45
2023/04/24 10:50:22;;;;;;;17.67;2.72;;;10.40;99.90;;;;;;5029412;28;20091;-42
2023/04/24 10:52:51;;;;;;;14.77;3.70;;;10.40;99.90;;;;;;5022527;28;20431;-40
2023/04/24 10:55:47;;;;;;;13.95;3.83;;;10.40;99.90;;;;;;5023655;28;20194;-39
2023/04/24 10:58:14;;;;;;;9.05;2.55;;;10.40;99.90;;;;;;5034030;28;20064;-36
2023/04/24 11:00:41;;;;;;;15.98;3.15;;;10.50;99.90;;;;;;5034006;28;20056;-41
2023/04/24 11:03:22;;;;;;;17.33;3.13;;;10.70;99.90;;;;;;5036930;28;20425;-37
2023/04/24 11:05:59;;;;;;;8.63;3.05;;;10.90;99.90;;;;;;5036311;28;20036;-43
2023/04/24 11:08:29;;;;;;;7.95;2.13;;;10.80;99.90;;;;;;5025818;28;20047;-42
2023/04/24 11:10:58;;;;;;;8.05;2.63;;;10.70;99.90;;;;;;5035258;28;20539;-45
2023/04/24 11:13:25;;;;;;;9.00;2.83;;;10.60;99.90;;;;;;5047386;28;20065;-41
2023/04/24 11:16:25;;;;;;;8.57;2.97;;;10.50;99.90;;;;;;5030104;28;20127;-44
2023/04/24 11:19:05;;;;;;;9.52;3.25;;;10.40;99.90;;;;;;5038613;28;20144;-44
2023/04/24 11:21:48;;;;;;;9.63;2.80;;;10.40;99.90;;;;;;5033349;28;20604;-44
2023/04/24 11:24:36;;;;;;;8.52;3.72;;;10.30;99.90;;;;;;5035037;28;20044;-43
2023/04/24 11:27:21;;;;;;;7.70;2.30;;;10.50;99.90;;;;;;5023110;28;20491;-47
2023/04/24 11:29:55;;;;;;;9.80;2.20;;;10.60;99.90;;;;;;5024762;28;20897;-46
2023/04/24 11:32:28;;;;;;;7.95;1.88;;;10.60;99.90;;;;;;5023165;28;20056;-43
2023/04/24 11:35:00;;;;;;;9.05;2.30;;;10.70;99.90;;;;;;5036846;28;20070;-40
2023/04/24 11:37:37;;;;;;;6.18;2.03;;;10.90;99.90;;;;;;5036616;28;20048;-45
2023/04/24 11:40:08;;;;;;;6.88;2.10;;;11.10;99.90;;;;;;5034956;28;20049;-38
2023/04/24 11:42:38;;;;;;;9.98;2.33;;;11.30;99.90;;;;;;5029801;28;20048;-43
2023/04/24 11:45:19;;;;;;;6.75;1.58;;;11.50;99.90;;;;;;5027159;28;20570;-42
2023/04/24 11:47:45;;;;;;;3.72;1.10;;;11.80;99.90;;;;;;5032168;28;20356;-37
2023/04/24 11:50:13;;;;;;;6.15;1.70;;;12.10;99.90;;;;;;5021357;28;20052;-37
2023/04/24 11:52:40;;;;;;;4.63;1.20;;;12.20;99.90;;;;;;5035306;28;20128;-42
2023/04/24 11:55:15;;;;;;;6.45;1.10;;;12.40;99.90;;;;;;5036010;28;20141;-44
2023/04/24 11:57:56;;;;;;;2.92;1.15;;;12.40;99.90;;;;;;5021545;28;20049;-43
2023/04/24 12:00:26;;;;;;;5.07;1.40;;;12.30;99.90;;;;;;5016577;28;20548;-39
2023/04/24 12:03:03;;;;;;;3.45;1.33;;;12.10;99.90;;;;;;5031858;28;20067;-42
2023/04/24 12:05:31;;;;;;;5.30;1.40;;;12.10;99.90;;;;;;5035919;28;20072;-39
2023/04/24 12:07:57;;;;;;;6.72;1.70;;;12.10;99.90;;;;;;5035364;28;20140;-42
2023/04/24 12:10:25;;;;;;;7.65;1.45;;;12.00;99.90;;;;;;5035722;28;20391;-41
2023/04/24 12:12:51;;;;;;;6.47;1.50;;;12.00;99.90;;;;;;5033885;28;20052;-41
2023/04/24 12:15:19;;;;;;;8.77;1.80;;;12.00;99.90;;;;;;5021517;28;20115;-44
2023/04/24 12:17:45;;;;;;;8.90;1.40;;;11.90;99.90;;;;;;5034566;28;20084;-38
2023/04/24 12:20:12;;;;;;;7.25;1.58;;;11.80;99.90;;;;;;5036066;28;20124;-41
2023/04/24 12:22:54;;;;;;;6.60;1.48;;;11.70;99.90;;;;;;5035030;28;20596;-41
2023/04/24 12:25:28;;;;;;;9.80;1.77;;;11.70;99.90;;;;;;5036533;28;20793;-36
2023/04/24 12:27:55;;;;;;;8.57;3.15;;;11.50;99.90;;;;;;5037035;28;20098;-42
2023/04/24 12:30:26;;;;;;;7.63;1.52;;;11.50;99.90;;;;;;5048107;28;20049;-42
2023/04/24 12:32:54;;;;;;;5.88;2.03;;;11.40;99.90;;;;;;5025299;28;20051;-37
2023/04/24 12:35:22;;;;;;;7.05;1.40;;;11.50;99.90;;;;;;5029175;28;20045;-36
2023/04/24 12:37:48;;;;;;;7.90;1.30;;;11.50;99.90;;;;;;5023890;28;20525;-44
2023/04/24 12:40:14;;;;;;;8.82;1.27;;;11.60;99.90;;;;;;5021027;28;20152;-40
2023/04/24 12:42:45;;;;;;;4.85;1.08;;;11.70;99.90;;;;;;5035854;28;20037;-36